SAOC/RCU METAR and TAF weather

Enter ICAO airport designator
Station Type Date Time Source
SAOC METAR 2020/01/27 11:00 UTC NOAA

SAOC 271100Z 05004KT CAVOK 19/11 Q1011


Station Type Date Time Source
SAOC Decoded METAR 2020/01/27 11:00 UTC NOAA

Rio Cuarto Aerodrome, Argentina (SAOC) 33-07S 064-14W 421M
Jan 27, 2020 - 06:00 AM EST / 2020.01.27 1100 UTC
Wind: from the NE (050 degrees) at 5 MPH (4 KT):0
Visibility: greater than 7 mile(s):0
Temperature: 66 F (19 C)
Dew Point: 51 F (11 C)
Relative Humidity: 59%
Pressure (altimeter): 29.85 in. Hg (1011 hPa)
ob: SAOC 271100Z 05004KT CAVOK 19/11 Q1011
cycle: 11

Station Type Date Time Source
SAOC TAF 2020/01/25 12:18 UTC NOAA

TAF SAOC 251100Z 2512/2612 16005KT CAVOK TX38/2518Z TN23/2610Z
BECMG 2519/2522 FEW040TCU

Example: see airport list